sensor_id;sensor_type;location;lat;lon;timestamp;P1;durP1;ratioP1;P2;durP2;ratioP2
12218;SDS011;6172;42.646;23.344;2023-02-11T00:02:23;14.33;;;7.30;;
12218;SDS011;6172;42.646;23.344;2023-02-11T00:05:07;16.30;;;7.10;;
12218;SDS011;6172;42.646;23.344;2023-02-11T00:07:39;16.30;;;7.40;;
12218;SDS011;6172;42.646;23.344;2023-02-11T00:10:15;15.80;;;7.50;;
12218;SDS011;6172;42.646;23.344;2023-02-11T00:12:46;12.57;;;7.33;;
12218;SDS011;6172;42.646;23.344;2023-02-11T00:15:13;14.20;;;7.30;;
12218;SDS011;6172;42.646;23.344;2023-02-11T00:17:40;15.27;;;7.13;;
12218;SDS011;6172;42.646;23.344;2023-02-11T00:20:10;13.03;;;7.10;;
12218;SDS011;6172;42.646;23.344;2023-02-11T00:22:43;15.07;;;7.60;;
12218;SDS011;6172;42.646;23.344;2023-02-11T00:25:13;13.73;;;7.53;;
12218;SDS011;6172;42.646;23.344;2023-02-11T00:27:41;13.17;;;6.47;;
12218;SDS011;6172;42.646;23.344;2023-02-11T00:30:09;13.27;;;7.23;;
12218;SDS011;6172;42.646;23.344;2023-02-11T00:32:36;15.43;;;7.40;;
12218;SDS011;6172;42.646;23.344;2023-02-11T00:35:07;15.43;;;7.57;;
12218;SDS011;6172;42.646;23.344;2023-02-11T00:37:38;18.57;;;8.40;;
12218;SDS011;6172;42.646;23.344;2023-02-11T00:40:06;14.27;;;7.57;;
12218;SDS011;6172;42.646;23.344;2023-02-11T00:42:34;17.87;;;8.00;;
12218;SDS011;6172;42.646;23.344;2023-02-11T00:45:01;13.30;;;7.53;;
12218;SDS011;6172;42.646;23.344;2023-02-11T00:47:31;15.77;;;7.37;;
12218;SDS011;6172;42.646;23.344;2023-02-11T00:49:58;15.70;;;7.53;;
12218;SDS011;6172;42.646;23.344;2023-02-11T00:52:25;15.70;;;7.47;;
12218;SDS011;6172;42.646;23.344;2023-02-11T00:54:55;14.47;;;7.03;;
12218;SDS011;6172;42.646;23.344;2023-02-11T00:57:25;16.77;;;8.17;;
12218;SDS011;6172;42.646;23.344;2023-02-11T00:59:53;15.60;;;7.07;;
12218;SDS011;6172;42.646;23.344;2023-02-11T01:02:21;15.90;;;7.93;;
12218;SDS011;6172;42.646;23.344;2023-02-11T01:04:49;15.67;;;7.80;;
12218;SDS011;6172;42.646;23.344;2023-02-11T01:07:17;18.70;;;7.50;;
12218;SDS011;6172;42.646;23.344;2023-02-11T01:12:40;16.40;;;6.93;;
12218;SDS011;6172;42.646;23.344;2023-02-11T01:15:10;14.37;;;7.40;;
12218;SDS011;6172;42.646;23.344;2023-02-11T01:17:39;15.87;;;7.63;;
12218;SDS011;6172;42.646;23.344;2023-02-11T01:20:07;14.10;;;7.63;;
12218;SDS011;6172;42.646;23.344;2023-02-11T01:22:41;14.47;;;7.30;;
12218;SDS011;6172;42.646;23.344;2023-02-11T01:25:09;14.23;;;7.50;;
12218;SDS011;6172;42.646;23.344;2023-02-11T01:27:37;13.27;;;6.80;;
12218;SDS011;6172;42.646;23.344;2023-02-11T01:30:11;17.30;;;7.90;;
12218;SDS011;6172;42.646;23.344;2023-02-11T01:32:39;15.20;;;7.07;;
12218;SDS011;6172;42.646;23.344;2023-02-11T01:35:06;17.90;;;7.70;;
12218;SDS011;6172;42.646;23.344;2023-02-11T01:37:33;14.33;;;7.00;;
12218;SDS011;6172;42.646;23.344;2023-02-11T01:40:01;14.47;;;7.23;;
12218;SDS011;6172;42.646;23.344;2023-02-11T01:42:29;18.53;;;7.00;;
12218;SDS011;6172;42.646;23.344;2023-02-11T01:44:58;15.23;;;7.73;;
12218;SDS011;6172;42.646;23.344;2023-02-11T01:47:27;16.00;;;7.53;;
12218;SDS011;6172;42.646;23.344;2023-02-11T01:50:00;15.13;;;7.23;;
12218;SDS011;6172;42.646;23.344;2023-02-11T01:52:29;15.47;;;8.37;;
12218;SDS011;6172;42.646;23.344;2023-02-11T01:55:04;17.70;;;8.13;;
12218;SDS011;6172;42.646;23.344;2023-02-11T01:58:00;16.70;;;7.07;;
12218;SDS011;6172;42.646;23.344;2023-02-11T02:00:33;17.83;;;7.37;;
12218;SDS011;6172;42.646;23.344;2023-02-11T02:03:07;13.43;;;7.37;;
12218;SDS011;6172;42.646;23.344;2023-02-11T02:05:38;16.63;;;8.17;;
12218;SDS011;6172;42.646;23.344;2023-02-11T02:08:12;16.20;;;7.37;;
12218;SDS011;6172;42.646;23.344;2023-02-11T02:10:45;15.97;;;7.60;;
12218;SDS011;6172;42.646;23.344;2023-02-11T02:13:20;15.53;;;8.33;;
12218;SDS011;6172;42.646;23.344;2023-02-11T02:15:51;17.70;;;7.20;;
12218;SDS011;6172;42.646;23.344;2023-02-11T02:18:28;20.07;;;8.33;;
12218;SDS011;6172;42.646;23.344;2023-02-11T02:21:28;18.40;;;8.07;;
12218;SDS011;6172;42.646;23.344;2023-02-11T02:27:40;16.00;;;7.77;;
12218;SDS011;6172;42.646;23.344;2023-02-11T02:30:16;15.10;;;7.40;;
12218;SDS011;6172;42.646;23.344;2023-02-11T02:33:15;15.37;;;7.87;;
12218;SDS011;6172;42.646;23.344;2023-02-11T02:35:59;16.47;;;7.83;;
12218;SDS011;6172;42.646;23.344;2023-02-11T02:38:34;15.23;;;8.13;;
12218;SDS011;6172;42.646;23.344;2023-02-11T02:41:07;16.40;;;8.27;;
12218;SDS011;6172;42.646;23.344;2023-02-11T02:43:40;17.63;;;7.97;;
12218;SDS011;6172;42.646;23.344;2023-02-11T02:46:13;14.57;;;7.80;;
12218;SDS011;6172;42.646;23.344;2023-02-11T02:48:44;13.70;;;7.10;;
12218;SDS011;6172;42.646;23.344;2023-02-11T02:51:14;17.13;;;7.77;;
12218;SDS011;6172;42.646;23.344;2023-02-11T02:53:57;15.27;;;7.73;;
12218;SDS011;6172;42.646;23.344;2023-02-11T02:56:50;14.67;;;7.13;;
12218;SDS011;6172;42.646;23.344;2023-02-11T02:59:27;14.73;;;7.67;;
12218;SDS011;6172;42.646;23.344;2023-02-11T03:02:05;13.67;;;6.60;;
12218;SDS011;6172;42.646;23.344;2023-02-11T03:04:43;13.87;;;6.93;;
12218;SDS011;6172;42.646;23.344;2023-02-11T03:07:20;16.83;;;7.97;;
12218;SDS011;6172;42.646;23.344;2023-02-11T03:09:54;16.37;;;8.40;;
12218;SDS011;6172;42.646;23.344;2023-02-11T03:12:26;15.47;;;7.03;;
12218;SDS011;6172;42.646;23.344;2023-02-11T03:14:56;17.97;;;8.70;;
12218;SDS011;6172;42.646;23.344;2023-02-11T03:17:30;15.47;;;7.03;;
12218;SDS011;6172;42.646;23.344;2023-02-11T03:20:11;16.67;;;7.80;;
12218;SDS011;6172;42.646;23.344;2023-02-11T03:22:47;16.47;;;7.67;;
12218;SDS011;6172;42.646;23.344;2023-02-11T03:25:19;16.80;;;7.53;;
12218;SDS011;6172;42.646;23.344;2023-02-11T03:27:53;14.13;;;7.00;;
12218;SDS011;6172;42.646;23.344;2023-02-11T03:30:26;15.63;;;8.17;;
12218;SDS011;6172;42.646;23.344;2023-02-11T03:33:00;14.47;;;7.53;;
12218;SDS011;6172;42.646;23.344;2023-02-11T03:35:37;15.57;;;7.57;;
12218;SDS011;6172;42.646;23.344;2023-02-11T03:38:08;17.20;;;8.67;;
12218;SDS011;6172;42.646;23.344;2023-02-11T03:40:39;16.23;;;7.87;;
12218;SDS011;6172;42.646;23.344;2023-02-11T03:43:11;15.40;;;7.97;;
12218;SDS011;6172;42.646;23.344;2023-02-11T03:45:45;17.73;;;7.90;;
12218;SDS011;6172;42.646;23.344;2023-02-11T03:48:17;18.77;;;7.77;;
12218;SDS011;6172;42.646;23.344;2023-02-11T03:53:34;16.77;;;7.77;;
12218;SDS011;6172;42.646;23.344;2023-02-11T03:56:04;14.47;;;7.80;;
12218;SDS011;6172;42.646;23.344;2023-02-11T03:58:34;18.30;;;8.20;;
12218;SDS011;6172;42.646;23.344;2023-02-11T04:01:02;20.70;;;8.37;;
12218;SDS011;6172;42.646;23.344;2023-02-11T04:03:34;15.73;;;8.10;;
12218;SDS011;6172;42.646;23.344;2023-02-11T04:06:02;18.47;;;8.93;;
12218;SDS011;6172;42.646;23.344;2023-02-11T04:08:31;17.63;;;7.80;;
12218;SDS011;6172;42.646;23.344;2023-02-11T04:11:02;17.73;;;8.37;;
12218;SDS011;6172;42.646;23.344;2023-02-11T04:13:29;16.33;;;8.23;;
12218;SDS011;6172;42.646;23.344;2023-02-11T04:15:59;19.73;;;8.00;;
12218;SDS011;6172;42.646;23.344;2023-02-11T04:18:26;18.90;;;8.87;;
12218;SDS011;6172;42.646;23.344;2023-02-11T04:20:53;18.90;;;8.47;;
12218;SDS011;6172;42.646;23.344;2023-02-11T04:23:21;18.97;;;8.70;;
12218;SDS011;6172;42.646;23.344;2023-02-11T04:25:55;15.30;;;8.00;;
12218;SDS011;6172;42.646;23.344;2023-02-11T04:28:23;18.10;;;8.90;;
12218;SDS011;6172;42.646;23.344;2023-02-11T04:30:53;17.50;;;8.37;;
12218;SDS011;6172;42.646;23.344;2023-02-11T04:33:24;18.67;;;8.87;;
12218;SDS011;6172;42.646;23.344;2023-02-11T04:35:52;20.70;;;9.23;;
12218;SDS011;6172;42.646;23.344;2023-02-11T04:38:19;16.43;;;8.53;;
12218;SDS011;6172;42.646;23.344;2023-02-11T04:40:48;18.07;;;8.60;;
12218;SDS011;6172;42.646;23.344;2023-02-11T04:43:16;16.47;;;8.90;;
12218;SDS011;6172;42.646;23.344;2023-02-11T04:45:55;19.27;;;8.53;;
12218;SDS011;6172;42.646;23.344;2023-02-11T04:48:24;20.00;;;9.10;;
12218;SDS011;6172;42.646;23.344;2023-02-11T04:50:51;19.43;;;9.13;;
12218;SDS011;6172;42.646;23.344;2023-02-11T04:53:18;19.53;;;9.87;;
12218;SDS011;6172;42.646;23.344;2023-02-11T04:55:47;18.40;;;8.97;;
12218;SDS011;6172;42.646;23.344;2023-02-11T04:58:14;17.30;;;8.53;;
12218;SDS011;6172;42.646;23.344;2023-02-11T05:00:46;20.00;;;9.53;;
12218;SDS011;6172;42.646;23.344;2023-02-11T05:03:14;16.10;;;8.70;;
12218;SDS011;6172;42.646;23.344;2023-02-11T05:05:42;20.37;;;9.77;;
12218;SDS011;6172;42.646;23.344;2023-02-11T05:08:09;19.37;;;9.43;;
12218;SDS011;6172;42.646;23.344;2023-02-11T05:10:37;20.37;;;8.93;;
12218;SDS011;6172;42.646;23.344;2023-02-11T05:13:04;19.50;;;9.47;;
12218;SDS011;6172;42.646;23.344;2023-02-11T05:15:33;20.60;;;10.10;;
12218;SDS011;6172;42.646;23.344;2023-02-11T05:18:00;24.13;;;10.43;;
12218;SDS011;6172;42.646;23.344;2023-02-11T05:20:28;24.63;;;10.27;;
12218;SDS011;6172;42.646;23.344;2023-02-11T05:25:33;25.03;;;11.33;;
12218;SDS011;6172;42.646;23.344;2023-02-11T05:28:12;20.07;;;10.27;;
12218;SDS011;6172;42.646;23.344;2023-02-11T05:30:50;21.23;;;9.27;;
12218;SDS011;6172;42.646;23.344;2023-02-11T05:33:21;20.77;;;10.67;;
12218;SDS011;6172;42.646;23.344;2023-02-11T05:35:56;24.37;;;10.00;;
12218;SDS011;6172;42.646;23.344;2023-02-11T05:38:27;25.33;;;11.23;;
12218;SDS011;6172;42.646;23.344;2023-02-11T05:40:56;23.50;;;10.57;;
12218;SDS011;6172;42.646;23.344;2023-02-11T05:43:33;25.03;;;11.07;;
12218;SDS011;6172;42.646;23.344;2023-02-11T05:46:05;22.27;;;10.10;;
12218;SDS011;6172;42.646;23.344;2023-02-11T05:48:35;25.10;;;10.70;;
12218;SDS011;6172;42.646;23.344;2023-02-11T05:51:02;21.33;;;10.53;;
12218;SDS011;6172;42.646;23.344;2023-02-11T05:53:37;23.17;;;11.17;;
12218;SDS011;6172;42.646;23.344;2023-02-11T05:56:26;24.07;;;10.30;;
12218;SDS011;6172;42.646;23.344;2023-02-11T05:58:54;21.03;;;10.33;;
12218;SDS011;6172;42.646;23.344;2023-02-11T06:01:49;25.77;;;11.27;;
12218;SDS011;6172;42.646;23.344;2023-02-11T06:04:38;29.57;;;12.17;;
12218;SDS011;6172;42.646;23.344;2023-02-11T06:07:20;29.57;;;12.80;;
12218;SDS011;6172;42.646;23.344;2023-02-11T06:10:02;27.00;;;12.83;;
12218;SDS011;6172;42.646;23.344;2023-02-11T06:12:31;26.07;;;12.93;;
12218;SDS011;6172;42.646;23.344;2023-02-11T06:15:14;24.40;;;13.13;;
12218;SDS011;6172;42.646;23.344;2023-02-11T06:17:43;26.73;;;12.10;;
12218;SDS011;6172;42.646;23.344;2023-02-11T06:20:12;26.43;;;12.93;;
12218;SDS011;6172;42.646;23.344;2023-02-11T06:22:46;28.03;;;13.47;;
12218;SDS011;6172;42.646;23.344;2023-02-11T06:25:17;29.87;;;13.27;;
12218;SDS011;6172;42.646;23.344;2023-02-11T06:27:44;25.83;;;12.83;;
12218;SDS011;6172;42.646;23.344;2023-02-11T06:30:17;28.33;;;13.40;;
12218;SDS011;6172;42.646;23.344;2023-02-11T06:32:50;29.17;;;12.83;;
12218;SDS011;6172;42.646;23.344;2023-02-11T06:35:17;29.40;;;13.40;;
12218;SDS011;6172;42.646;23.344;2023-02-11T06:37:44;27.03;;;13.83;;
12218;SDS011;6172;42.646;23.344;2023-02-11T06:40:12;27.37;;;13.13;;
12218;SDS011;6172;42.646;23.344;2023-02-11T06:42:40;29.50;;;14.90;;
12218;SDS011;6172;42.646;23.344;2023-02-11T06:45:08;24.90;;;12.70;;
12218;SDS011;6172;42.646;23.344;2023-02-11T06:47:38;28.60;;;14.73;;
12218;SDS011;6172;42.646;23.344;2023-02-11T06:50:12;26.90;;;12.40;;
12218;SDS011;6172;42.646;23.344;2023-02-11T06:52:40;22.33;;;12.83;;
12218;SDS011;6172;42.646;23.344;2023-02-11T06:55:07;27.10;;;13.60;;
12218;SDS011;6172;42.646;23.344;2023-02-11T06:57:35;28.33;;;13.40;;
12218;SDS011;6172;42.646;23.344;2023-02-11T07:00:02;25.67;;;13.63;;
12218;SDS011;6172;42.646;23.344;2023-02-11T07:02:30;26.37;;;13.43;;
12218;SDS011;6172;42.646;23.344;2023-02-11T07:04:57;28.27;;;13.33;;
12218;SDS011;6172;42.646;23.344;2023-02-11T07:07:29;28.27;;;13.27;;
12218;SDS011;6172;42.646;23.344;2023-02-11T07:09:56;26.37;;;13.50;;
12218;SDS011;6172;42.646;23.344;2023-02-11T07:12:24;24.20;;;13.07;;
12218;SDS011;6172;42.646;23.344;2023-02-11T07:14:51;31.40;;;16.23;;
12218;SDS011;6172;42.646;23.344;2023-02-11T07:17:18;27.37;;;13.70;;
12218;SDS011;6172;42.646;23.344;2023-02-11T07:19:45;22.17;;;12.97;;
12218;SDS011;6172;42.646;23.344;2023-02-11T07:22:12;27.70;;;13.83;;
12218;SDS011;6172;42.646;23.344;2023-02-11T07:24:41;26.93;;;14.20;;
12218;SDS011;6172;42.646;23.344;2023-02-11T07:27:08;27.33;;;13.70;;
12218;SDS011;6172;42.646;23.344;2023-02-11T07:29:35;25.17;;;13.73;;
12218;SDS011;6172;42.646;23.344;2023-02-11T07:32:02;25.60;;;14.60;;
12218;SDS011;6172;42.646;23.344;2023-02-11T07:34:29;27.93;;;14.00;;
12218;SDS011;6172;42.646;23.344;2023-02-11T07:36:56;27.53;;;13.53;;
12218;SDS011;6172;42.646;23.344;2023-02-11T07:39:23;24.10;;;13.53;;
12218;SDS011;6172;42.646;23.344;2023-02-11T07:41:52;22.50;;;12.53;;
12218;SDS011;6172;42.646;23.344;2023-02-11T07:44:21;21.00;;;11.83;;
12218;SDS011;6172;42.646;23.344;2023-02-11T07:46:48;23.00;;;12.63;;
12218;SDS011;6172;42.646;23.344;2023-02-11T07:49:15;18.30;;;10.57;;
12218;SDS011;6172;42.646;23.344;2023-02-11T07:51:42;21.60;;;11.17;;
12218;SDS011;6172;42.646;23.344;2023-02-11T07:54:10;21.53;;;11.60;;
12218;SDS011;6172;42.646;23.344;2023-02-11T07:56:37;22.10;;;12.13;;
12218;SDS011;6172;42.646;23.344;2023-02-11T07:59:05;24.13;;;11.67;;
12218;SDS011;6172;42.646;23.344;2023-02-11T08:01:32;20.33;;;10.57;;
12218;SDS011;6172;42.646;23.344;2023-02-11T08:04:00;17.87;;;11.00;;
12218;SDS011;6172;42.646;23.344;2023-02-11T08:06:28;18.90;;;10.57;;
12218;SDS011;6172;42.646;23.344;2023-02-11T08:08:56;20.73;;;10.77;;
12218;SDS011;6172;42.646;23.344;2023-02-11T08:11:24;22.23;;;12.03;;
12218;SDS011;6172;42.646;23.344;2023-02-11T08:13:53;21.73;;;11.87;;
12218;SDS011;6172;42.646;23.344;2023-02-11T08:16:25;22.83;;;10.83;;
12218;SDS011;6172;42.646;23.344;2023-02-11T08:18:58;23.53;;;10.00;;
12218;SDS011;6172;42.646;23.344;2023-02-11T08:21:26;20.87;;;11.20;;
12218;SDS011;6172;42.646;23.344;2023-02-11T08:23:53;22.33;;;10.80;;
12218;SDS011;6172;42.646;23.344;2023-02-11T08:26:21;23.03;;;11.43;;
12218;SDS011;6172;42.646;23.344;2023-02-11T08:28:50;21.37;;;12.00;;
12218;SDS011;6172;42.646;23.344;2023-02-11T08:31:19;21.73;;;10.93;;
12218;SDS011;6172;42.646;23.344;2023-02-11T08:33:49;20.40;;;11.07;;
12218;SDS011;6172;42.646;23.344;2023-02-11T08:36:16;26.53;;;11.80;;
12218;SDS011;6172;42.646;23.344;2023-02-11T08:38:45;22.03;;;10.00;;
12218;SDS011;6172;42.646;23.344;2023-02-11T08:41:12;21.93;;;10.60;;
12218;SDS011;6172;42.646;23.344;2023-02-11T08:43:40;20.13;;;11.10;;
12218;SDS011;6172;42.646;23.344;2023-02-11T08:46:07;23.20;;;11.13;;
12218;SDS011;6172;42.646;23.344;2023-02-11T08:48:35;19.83;;;11.77;;
12218;SDS011;6172;42.646;23.344;2023-02-11T08:51:07;20.03;;;10.83;;
12218;SDS011;6172;42.646;23.344;2023-02-11T08:53:35;21.13;;;11.50;;
12218;SDS011;6172;42.646;23.344;2023-02-11T08:56:02;21.10;;;11.63;;
12218;SDS011;6172;42.646;23.344;2023-02-11T08:58:29;18.90;;;11.57;;
12218;SDS011;6172;42.646;23.344;2023-02-11T09:00:56;18.77;;;11.40;;
12218;SDS011;6172;42.646;23.344;2023-02-11T09:03:23;23.63;;;11.77;;
12218;SDS011;6172;42.646;23.344;2023-02-11T09:05:50;23.07;;;12.50;;
12218;SDS011;6172;42.646;23.344;2023-02-11T09:08:19;26.80;;;12.50;;
12218;SDS011;6172;42.646;23.344;2023-02-11T09:10:46;22.63;;;12.70;;
12218;SDS011;6172;42.646;23.344;2023-02-11T09:13:13;25.00;;;12.43;;
12218;SDS011;6172;42.646;23.344;2023-02-11T09:15:43;21.67;;;12.43;;
12218;SDS011;6172;42.646;23.344;2023-02-11T09:18:11;23.63;;;12.20;;
12218;SDS011;6172;42.646;23.344;2023-02-11T09:20:37;22.70;;;12.27;;
12218;SDS011;6172;42.646;23.344;2023-02-11T09:23:04;24.40;;;12.20;;
12218;SDS011;6172;42.646;23.344;2023-02-11T09:25:32;21.13;;;11.80;;
12218;SDS011;6172;42.646;23.344;2023-02-11T09:27:59;19.57;;;11.60;;
12218;SDS011;6172;42.646;23.344;2023-02-11T09:30:26;20.37;;;11.10;;
12218;SDS011;6172;42.646;23.344;2023-02-11T09:32:53;21.50;;;12.07;;
12218;SDS011;6172;42.646;23.344;2023-02-11T09:35:20;21.47;;;11.87;;
12218;SDS011;6172;42.646;23.344;2023-02-11T09:37:47;22.97;;;11.50;;
12218;SDS011;6172;42.646;23.344;2023-02-11T09:40:14;20.97;;;11.20;;
12218;SDS011;6172;42.646;23.344;2023-02-11T09:42:46;17.87;;;10.80;;
12218;SDS011;6172;42.646;23.344;2023-02-11T09:45:17;19.73;;;11.03;;
12218;SDS011;6172;42.646;23.344;2023-02-11T09:47:47;21.57;;;10.80;;
12218;SDS011;6172;42.646;23.344;2023-02-11T09:50:17;18.93;;;10.40;;
12218;SDS011;6172;42.646;23.344;2023-02-11T09:52:49;19.23;;;10.77;;
12218;SDS011;6172;42.646;23.344;2023-02-11T09:55:27;17.83;;;10.93;;
12218;SDS011;6172;42.646;23.344;2023-02-11T09:58:14;20.10;;;10.93;;
12218;SDS011;6172;42.646;23.344;2023-02-11T10:00:43;19.23;;;10.63;;
12218;SDS011;6172;42.646;23.344;2023-02-11T10:03:17;16.40;;;10.23;;
12218;SDS011;6172;42.646;23.344;2023-02-11T10:05:56;18.70;;;10.73;;
12218;SDS011;6172;42.646;23.344;2023-02-11T10:08:37;19.57;;;10.40;;
12218;SDS011;6172;42.646;23.344;2023-02-11T10:11:10;18.30;;;10.33;;
12218;SDS011;6172;42.646;23.344;2023-02-11T10:13:48;16.73;;;10.13;;
12218;SDS011;6172;42.646;23.344;2023-02-11T10:16:28;18.50;;;10.00;;
12218;SDS011;6172;42.646;23.344;2023-02-11T10:19:15;18.93;;;10.03;;
12218;SDS011;6172;42.646;23.344;2023-02-11T10:21:57;17.93;;;9.90;;
12218;SDS011;6172;42.646;23.344;2023-02-11T10:24:32;19.27;;;9.37;;
12218;SDS011;6172;42.646;23.344;2023-02-11T10:27:00;18.70;;;9.60;;
12218;SDS011;6172;42.646;23.344;2023-02-11T10:29:37;17.10;;;9.77;;
12218;SDS011;6172;42.646;23.344;2023-02-11T10:32:11;18.03;;;9.60;;
12218;SDS011;6172;42.646;23.344;2023-02-11T10:34:57;16.27;;;9.70;;
12218;SDS011;6172;42.646;23.344;2023-02-11T10:37:28;20.10;;;9.20;;
12218;SDS011;6172;42.646;23.344;2023-02-11T10:39:55;16.10;;;8.97;;
12218;SDS011;6172;42.646;23.344;2023-02-11T10:42:22;13.63;;;7.30;;
12218;SDS011;6172;42.646;23.344;2023-02-11T10:44:55;11.97;;;7.83;;
12218;SDS011;6172;42.646;23.344;2023-02-11T10:47:26;15.00;;;7.63;;
12218;SDS011;6172;42.646;23.344;2023-02-11T10:49:58;14.07;;;7.87;;
12218;SDS011;6172;42.646;23.344;2023-02-11T10:52:28;12.00;;;7.87;;
12218;SDS011;6172;42.646;23.344;2023-02-11T10:54:57;15.67;;;8.90;;
12218;SDS011;6172;42.646;23.344;2023-02-11T10:57:27;12.00;;;7.47;;
12218;SDS011;6172;42.646;23.344;2023-02-11T11:00:01;14.87;;;8.00;;
12218;SDS011;6172;42.646;23.344;2023-02-11T11:02:32;12.27;;;7.70;;
12218;SDS011;6172;42.646;23.344;2023-02-11T11:05:03;13.77;;;7.67;;
12218;SDS011;6172;42.646;23.344;2023-02-11T11:07:40;14.60;;;8.10;;
12218;SDS011;6172;42.646;23.344;2023-02-11T11:10:25;14.77;;;8.70;;
12218;SDS011;6172;42.646;23.344;2023-02-11T11:12:59;12.87;;;7.30;;
12218;SDS011;6172;42.646;23.344;2023-02-11T11:15:28;11.97;;;7.27;;
12218;SDS011;6172;42.646;23.344;2023-02-11T11:20:43;11.70;;;7.50;;
12218;SDS011;6172;42.646;23.344;2023-02-11T11:23:21;13.87;;;8.67;;
12218;SDS011;6172;42.646;23.344;2023-02-11T11:25:57;13.13;;;8.67;;
12218;SDS011;6172;42.646;23.344;2023-02-11T11:28:27;18.77;;;11.50;;
12218;SDS011;6172;42.646;23.344;2023-02-11T11:30:58;14.20;;;8.13;;
12218;SDS011;6172;42.646;23.344;2023-02-11T11:33:26;13.87;;;7.60;;
12218;SDS011;6172;42.646;23.344;2023-02-11T11:35:59;14.53;;;8.13;;
12218;SDS011;6172;42.646;23.344;2023-02-11T11:38:29;14.17;;;7.47;;
12218;SDS011;6172;42.646;23.344;2023-02-11T11:43:55;14.67;;;8.33;;
12218;SDS011;6172;42.646;23.344;2023-02-11T11:46:25;12.93;;;7.40;;
12218;SDS011;6172;42.646;23.344;2023-02-11T11:48:55;9.90;;;6.37;;
12218;SDS011;6172;42.646;23.344;2023-02-11T11:51:29;11.67;;;7.43;;
12218;SDS011;6172;42.646;23.344;2023-02-11T11:53:59;14.87;;;7.00;;
12218;SDS011;6172;42.646;23.344;2023-02-11T11:56:31;12.60;;;7.87;;
12218;SDS011;6172;42.646;23.344;2023-02-11T11:58:59;11.20;;;7.30;;
12218;SDS011;6172;42.646;23.344;2023-02-11T12:01:32;17.60;;;7.83;;
12218;SDS011;6172;42.646;23.344;2023-02-11T12:04:10;16.57;;;7.43;;
12218;SDS011;6172;42.646;23.344;2023-02-11T12:06:53;15.00;;;7.67;;
12218;SDS011;6172;42.646;23.344;2023-02-11T12:09:35;14.77;;;7.40;;
12218;SDS011;6172;42.646;23.344;2023-02-11T12:12:14;11.67;;;7.43;;
12218;SDS011;6172;42.646;23.344;2023-02-11T12:14:52;10.17;;;7.00;;
12218;SDS011;6172;42.646;23.344;2023-02-11T12:17:34;12.57;;;6.63;;
12218;SDS011;6172;42.646;23.344;2023-02-11T12:20:16;14.20;;;6.37;;
12218;SDS011;6172;42.646;23.344;2023-02-11T12:22:57;13.73;;;6.83;;
12218;SDS011;6172;42.646;23.344;2023-02-11T12:25:33;13.10;;;7.70;;
12218;SDS011;6172;42.646;23.344;2023-02-11T12:28:15;18.37;;;7.97;;
12218;SDS011;6172;42.646;23.344;2023-02-11T12:30:54;18.00;;;7.57;;
12218;SDS011;6172;42.646;23.344;2023-02-11T12:33:33;11.50;;;7.33;;
12218;SDS011;6172;42.646;23.344;2023-02-11T12:36:14;14.97;;;7.37;;
12218;SDS011;6172;42.646;23.344;2023-02-11T12:38:53;15.83;;;6.40;;
12218;SDS011;6172;42.646;23.344;2023-02-11T12:41:36;14.07;;;6.50;;
12218;SDS011;6172;42.646;23.344;2023-02-11T12:44:30;11.90;;;6.33;;
12218;SDS011;6172;42.646;23.344;2023-02-11T12:47:13;10.37;;;6.17;;
12218;SDS011;6172;42.646;23.344;2023-02-11T12:49:53;9.73;;;5.70;;
12218;SDS011;6172;42.646;23.344;2023-02-11T12:52:33;10.07;;;5.87;;
12218;SDS011;6172;42.646;23.344;2023-02-11T12:55:13;11.80;;;6.53;;
12218;SDS011;6172;42.646;23.344;2023-02-11T12:57:48;17.30;;;6.90;;
12218;SDS011;6172;42.646;23.344;2023-02-11T13:00:18;9.23;;;6.47;;
12218;SDS011;6172;42.646;23.344;2023-02-11T13:02:49;12.77;;;6.40;;
12218;SDS011;6172;42.646;23.344;2023-02-11T13:05:23;10.80;;;5.97;;
12218;SDS011;6172;42.646;23.344;2023-02-11T13:07:55;9.33;;;6.10;;
12218;SDS011;6172;42.646;23.344;2023-02-11T13:10:29;9.60;;;6.20;;
12218;SDS011;6172;42.646;23.344;2023-02-11T13:12:59;9.90;;;6.37;;
12218;SDS011;6172;42.646;23.344;2023-02-11T13:15:41;17.83;;;8.07;;
12218;SDS011;6172;42.646;23.344;2023-02-11T13:18:16;11.80;;;6.77;;
12218;SDS011;6172;42.646;23.344;2023-02-11T13:20:52;13.93;;;6.47;;
12218;SDS011;6172;42.646;23.344;2023-02-11T13:23:25;9.93;;;6.40;;
12218;SDS011;6172;42.646;23.344;2023-02-11T13:26:01;11.80;;;6.60;;
12218;SDS011;6172;42.646;23.344;2023-02-11T13:28:39;15.00;;;6.30;;
12218;SDS011;6172;42.646;23.344;2023-02-11T13:31:09;15.47;;;6.93;;
12218;SDS011;6172;42.646;23.344;2023-02-11T13:33:40;14.07;;;6.73;;
12218;SDS011;6172;42.646;23.344;2023-02-11T13:36:12;11.57;;;6.67;;
12218;SDS011;6172;42.646;23.344;2023-02-11T13:38:49;14.33;;;7.17;;
12218;SDS011;6172;42.646;23.344;2023-02-11T13:41:23;11.67;;;6.63;;
12218;SDS011;6172;42.646;23.344;2023-02-11T13:44:05;10.43;;;6.63;;
12218;SDS011;6172;42.646;23.344;2023-02-11T13:46:56;10.93;;;6.20;;
12218;SDS011;6172;42.646;23.344;2023-02-11T13:49:29;10.87;;;6.43;;
12218;SDS011;6172;42.646;23.344;2023-02-11T13:52:01;9.50;;;6.40;;
12218;SDS011;6172;42.646;23.344;2023-02-11T13:54:31;12.57;;;6.57;;
12218;SDS011;6172;42.646;23.344;2023-02-11T14:03:22;11.00;;;6.53;;
12218;SDS011;6172;42.646;23.344;2023-02-11T14:06:09;11.60;;;6.27;;
12218;SDS011;6172;42.646;23.344;2023-02-11T14:09:05;9.50;;;5.87;;
12218;SDS011;6172;42.646;23.344;2023-02-11T14:11:43;10.60;;;5.60;;
12218;SDS011;6172;42.646;23.344;2023-02-11T14:14:16;13.17;;;6.30;;
12218;SDS011;6172;42.646;23.344;2023-02-11T14:19:44;10.73;;;6.73;;
12218;SDS011;6172;42.646;23.344;2023-02-11T14:22:13;12.10;;;6.87;;
12218;SDS011;6172;42.646;23.344;2023-02-11T14:24:47;12.10;;;6.53;;
12218;SDS011;6172;42.646;23.344;2023-02-11T14:27:19;10.90;;;6.33;;
12218;SDS011;6172;42.646;23.344;2023-02-11T14:30:03;11.27;;;6.37;;
12218;SDS011;6172;42.646;23.344;2023-02-11T14:32:43;12.60;;;6.40;;
12218;SDS011;6172;42.646;23.344;2023-02-11T14:35:22;13.50;;;6.80;;
12218;SDS011;6172;42.646;23.344;2023-02-11T14:37:57;13.30;;;6.73;;
12218;SDS011;6172;42.646;23.344;2023-02-11T14:40:33;13.37;;;6.87;;
12218;SDS011;6172;42.646;23.344;2023-02-11T14:43:10;14.50;;;7.40;;
12218;SDS011;6172;42.646;23.344;2023-02-11T14:45:38;16.40;;;7.47;;
12218;SDS011;6172;42.646;23.344;2023-02-11T14:48:12;13.87;;;7.37;;
12218;SDS011;6172;42.646;23.344;2023-02-11T14:50:42;13.73;;;7.33;;
12218;SDS011;6172;42.646;23.344;2023-02-11T14:53:11;17.63;;;8.17;;
12218;SDS011;6172;42.646;23.344;2023-02-11T14:55:43;15.50;;;7.20;;
12218;SDS011;6172;42.646;23.344;2023-02-11T14:58:13;12.83;;;7.57;;
12218;SDS011;6172;42.646;23.344;2023-02-11T15:00:49;14.17;;;7.83;;
12218;SDS011;6172;42.646;23.344;2023-02-11T15:03:31;16.37;;;8.37;;
12218;SDS011;6172;42.646;23.344;2023-02-11T15:06:03;14.00;;;7.93;;
12218;SDS011;6172;42.646;23.344;2023-02-11T15:08:42;14.87;;;8.23;;
12218;SDS011;6172;42.646;23.344;2023-02-11T15:14:15;15.07;;;7.97;;
12218;SDS011;6172;42.646;23.344;2023-02-11T15:17:07;16.33;;;8.07;;
12218;SDS011;6172;42.646;23.344;2023-02-11T15:19:35;13.83;;;7.77;;
12218;SDS011;6172;42.646;23.344;2023-02-11T15:22:06;12.67;;;7.97;;
12218;SDS011;6172;42.646;23.344;2023-02-11T15:24:44;15.00;;;8.10;;
12218;SDS011;6172;42.646;23.344;2023-02-11T15:27:13;13.87;;;8.20;;
12218;SDS011;6172;42.646;23.344;2023-02-11T15:29:43;12.07;;;7.00;;
12218;SDS011;6172;42.646;23.344;2023-02-11T15:32:14;16.47;;;7.90;;